sensor_id;sensor_type;location;lat;lon;timestamp;P1;durP1;ratioP1;P2;durP2;ratioP2
6209;SDS011;3138;52.550;13.148;2023-10-09T00:01:25;4.57;;;3.80;;
6209;SDS011;3138;52.550;13.148;2023-10-09T00:03:52;6.90;;;4.07;;
6209;SDS011;3138;52.550;13.148;2023-10-09T00:06:21;8.63;;;4.17;;
6209;SDS011;3138;52.550;13.148;2023-10-09T00:08:58;6.80;;;4.40;;
6209;SDS011;3138;52.550;13.148;2023-10-09T00:11:36;19.07;;;3.60;;
6209;SDS011;3138;52.550;13.148;2023-10-09T00:14:06;9.90;;;3.67;;
6209;SDS011;3138;52.550;13.148;2023-10-09T00:16:33;6.80;;;3.60;;
6209;SDS011;3138;52.550;13.148;2023-10-09T00:19:01;6.40;;;4.00;;
6209;SDS011;3138;52.550;13.148;2023-10-09T00:21:39;11.63;;;4.20;;
6209;SDS011;3138;52.550;13.148;2023-10-09T00:24:08;7.00;;;4.30;;
6209;SDS011;3138;52.550;13.148;2023-10-09T00:26:39;13.40;;;3.57;;
6209;SDS011;3138;52.550;13.148;2023-10-09T00:29:10;5.03;;;3.70;;
6209;SDS011;3138;52.550;13.148;2023-10-09T00:31:47;6.60;;;3.90;;
6209;SDS011;3138;52.550;13.148;2023-10-09T00:34:16;10.37;;;3.40;;
6209;SDS011;3138;52.550;13.148;2023-10-09T00:36:45;6.60;;;3.77;;
6209;SDS011;3138;52.550;13.148;2023-10-09T00:39:17;3.50;;;3.20;;
6209;SDS011;3138;52.550;13.148;2023-10-09T00:41:58;5.57;;;3.73;;
6209;SDS011;3138;52.550;13.148;2023-10-09T00:44:26;13.40;;;3.03;;
6209;SDS011;3138;52.550;13.148;2023-10-09T00:47:04;5.30;;;3.30;;
6209;SDS011;3138;52.550;13.148;2023-10-09T00:49:46;6.50;;;3.50;;
6209;SDS011;3138;52.550;13.148;2023-10-09T00:52:16;6.53;;;3.40;;
6209;SDS011;3138;52.550;13.148;2023-10-09T00:54:54;6.13;;;3.33;;
6209;SDS011;3138;52.550;13.148;2023-10-09T00:57:25;9.37;;;3.23;;
6209;SDS011;3138;52.550;13.148;2023-10-09T00:59:56;9.17;;;3.80;;
6209;SDS011;3138;52.550;13.148;2023-10-09T01:02:26;12.07;;;4.77;;
6209;SDS011;3138;52.550;13.148;2023-10-09T01:05:03;8.57;;;3.73;;
6209;SDS011;3138;52.550;13.148;2023-10-09T01:07:45;5.23;;;3.10;;
6209;SDS011;3138;52.550;13.148;2023-10-09T01:10:14;11.00;;;4.20;;
6209;SDS011;3138;52.550;13.148;2023-10-09T01:13:01;7.50;;;3.70;;
6209;SDS011;3138;52.550;13.148;2023-10-09T01:15:29;4.77;;;3.80;;
6209;SDS011;3138;52.550;13.148;2023-10-09T01:18:08;6.73;;;3.97;;
6209;SDS011;3138;52.550;13.148;2023-10-09T01:20:37;6.30;;;3.60;;
6209;SDS011;3138;52.550;13.148;2023-10-09T01:23:11;6.83;;;3.80;;
6209;SDS011;3138;52.550;13.148;2023-10-09T01:25:38;19.63;;;3.90;;
6209;SDS011;3138;52.550;13.148;2023-10-09T01:28:10;8.83;;;4.03;;
6209;SDS011;3138;52.550;13.148;2023-10-09T01:30:40;7.67;;;3.00;;
6209;SDS011;3138;52.550;13.148;2023-10-09T01:33:08;6.63;;;4.50;;
6209;SDS011;3138;52.550;13.148;2023-10-09T01:35:47;10.17;;;3.83;;
6209;SDS011;3138;52.550;13.148;2023-10-09T01:38:17;8.53;;;3.80;;
6209;SDS011;3138;52.550;13.148;2023-10-09T01:40:55;6.53;;;4.30;;
6209;SDS011;3138;52.550;13.148;2023-10-09T01:43:29;15.80;;;4.13;;
6209;SDS011;3138;52.550;13.148;2023-10-09T01:45:59;9.93;;;4.70;;
6209;SDS011;3138;52.550;13.148;2023-10-09T01:48:26;6.40;;;3.97;;
6209;SDS011;3138;52.550;13.148;2023-10-09T01:50:57;5.00;;;3.30;;
6209;SDS011;3138;52.550;13.148;2023-10-09T01:53:26;6.77;;;4.00;;
6209;SDS011;3138;52.550;13.148;2023-10-09T01:55:55;5.50;;;3.40;;
6209;SDS011;3138;52.550;13.148;2023-10-09T01:58:24;13.43;;;4.20;;
6209;SDS011;3138;52.550;13.148;2023-10-09T02:00:52;8.13;;;3.83;;
6209;SDS011;3138;52.550;13.148;2023-10-09T02:03:21;14.33;;;3.93;;
6209;SDS011;3138;52.550;13.148;2023-10-09T02:05:54;6.57;;;3.63;;
6209;SDS011;3138;52.550;13.148;2023-10-09T02:08:44;6.90;;;3.47;;
6209;SDS011;3138;52.550;13.148;2023-10-09T02:11:14;14.77;;;4.30;;
6209;SDS011;3138;52.550;13.148;2023-10-09T02:13:49;7.40;;;3.77;;
6209;SDS011;3138;52.550;13.148;2023-10-09T02:16:19;9.43;;;4.80;;
6209;SDS011;3138;52.550;13.148;2023-10-09T02:18:53;8.20;;;4.63;;
6209;SDS011;3138;52.550;13.148;2023-10-09T02:21:21;4.80;;;3.93;;
6209;SDS011;3138;52.550;13.148;2023-10-09T02:23:59;5.60;;;3.97;;
6209;SDS011;3138;52.550;13.148;2023-10-09T02:26:31;13.70;;;4.93;;
6209;SDS011;3138;52.550;13.148;2023-10-09T02:29:19;13.77;;;5.47;;
6209;SDS011;3138;52.550;13.148;2023-10-09T02:31:49;9.93;;;3.60;;
6209;SDS011;3138;52.550;13.148;2023-10-09T02:34:18;13.57;;;3.60;;
6209;SDS011;3138;52.550;13.148;2023-10-09T02:36:47;8.50;;;5.33;;
6209;SDS011;3138;52.550;13.148;2023-10-09T02:39:23;9.60;;;5.63;;
6209;SDS011;3138;52.550;13.148;2023-10-09T02:41:51;6.20;;;4.40;;
6209;SDS011;3138;52.550;13.148;2023-10-09T02:44:23;15.20;;;5.57;;
6209;SDS011;3138;52.550;13.148;2023-10-09T02:46:51;21.77;;;6.13;;
6209;SDS011;3138;52.550;13.148;2023-10-09T02:49:22;8.13;;;5.13;;
6209;SDS011;3138;52.550;13.148;2023-10-09T02:51:49;8.93;;;4.90;;
6209;SDS011;3138;52.550;13.148;2023-10-09T02:54:18;6.77;;;4.40;;
6209;SDS011;3138;52.550;13.148;2023-10-09T02:56:54;6.20;;;5.13;;
6209;SDS011;3138;52.550;13.148;2023-10-09T02:59:30;6.03;;;4.30;;
6209;SDS011;3138;52.550;13.148;2023-10-09T03:01:57;10.90;;;5.10;;
6209;SDS011;3138;52.550;13.148;2023-10-09T03:04:24;9.53;;;3.77;;
6209;SDS011;3138;52.550;13.148;2023-10-09T03:06:54;13.77;;;6.40;;
6209;SDS011;3138;52.550;13.148;2023-10-09T03:09:22;7.33;;;4.60;;
6209;SDS011;3138;52.550;13.148;2023-10-09T03:11:54;6.60;;;4.80;;
6209;SDS011;3138;52.550;13.148;2023-10-09T03:14:27;10.90;;;5.27;;
6209;SDS011;3138;52.550;13.148;2023-10-09T03:16:54;19.77;;;6.13;;
6209;SDS011;3138;52.550;13.148;2023-10-09T03:19:22;12.37;;;4.50;;
6209;SDS011;3138;52.550;13.148;2023-10-09T03:21:50;8.70;;;5.00;;
6209;SDS011;3138;52.550;13.148;2023-10-09T03:24:17;9.47;;;3.87;;
6209;SDS011;3138;52.550;13.148;2023-10-09T03:26:47;6.33;;;4.40;;
6209;SDS011;3138;52.550;13.148;2023-10-09T03:29:16;7.00;;;5.50;;
6209;SDS011;3138;52.550;13.148;2023-10-09T03:31:44;9.50;;;4.33;;
6209;SDS011;3138;52.550;13.148;2023-10-09T03:34:11;5.07;;;4.30;;
6209;SDS011;3138;52.550;13.148;2023-10-09T03:36:38;12.63;;;5.20;;
6209;SDS011;3138;52.550;13.148;2023-10-09T03:39:05;8.40;;;4.73;;
6209;SDS011;3138;52.550;13.148;2023-10-09T03:41:49;6.30;;;4.90;;
6209;SDS011;3138;52.550;13.148;2023-10-09T03:44:17;11.37;;;4.67;;
6209;SDS011;3138;52.550;13.148;2023-10-09T03:46:44;9.17;;;4.57;;
6209;SDS011;3138;52.550;13.148;2023-10-09T03:49:11;12.97;;;4.90;;
6209;SDS011;3138;52.550;13.148;2023-10-09T03:51:47;6.90;;;4.27;;
6209;SDS011;3138;52.550;13.148;2023-10-09T03:54:15;11.23;;;4.20;;
6209;SDS011;3138;52.550;13.148;2023-10-09T03:56:45;7.83;;;4.63;;
6209;SDS011;3138;52.550;13.148;2023-10-09T03:59:15;5.03;;;3.83;;
6209;SDS011;3138;52.550;13.148;2023-10-09T04:01:45;6.53;;;3.80;;
6209;SDS011;3138;52.550;13.148;2023-10-09T04:04:13;7.70;;;4.73;;
6209;SDS011;3138;52.550;13.148;2023-10-09T04:06:40;4.57;;;3.77;;
6209;SDS011;3138;52.550;13.148;2023-10-09T04:09:08;11.03;;;4.63;;
6209;SDS011;3138;52.550;13.148;2023-10-09T04:11:54;4.07;;;3.40;;
6209;SDS011;3138;52.550;13.148;2023-10-09T04:14:46;21.13;;;5.00;;
6209;SDS011;3138;52.550;13.148;2023-10-09T04:17:16;10.00;;;4.60;;
6209;SDS011;3138;52.550;13.148;2023-10-09T04:20:05;5.87;;;4.63;;
6209;SDS011;3138;52.550;13.148;2023-10-09T04:23:20;12.50;;;4.80;;
6209;SDS011;3138;52.550;13.148;2023-10-09T04:25:59;14.97;;;5.37;;
6209;SDS011;3138;52.550;13.148;2023-10-09T04:28:35;17.93;;;6.10;;
6209;SDS011;3138;52.550;13.148;2023-10-09T04:31:04;6.90;;;5.00;;
6209;SDS011;3138;52.550;13.148;2023-10-09T04:33:32;14.70;;;5.80;;
6209;SDS011;3138;52.550;13.148;2023-10-09T04:36:08;12.17;;;5.67;;
6209;SDS011;3138;52.550;13.148;2023-10-09T04:38:41;8.23;;;5.60;;
6209;SDS011;3138;52.550;13.148;2023-10-09T04:41:20;12.33;;;5.40;;
6209;SDS011;3138;52.550;13.148;2023-10-09T04:43:54;19.50;;;5.93;;
6209;SDS011;3138;52.550;13.148;2023-10-09T04:46:45;14.47;;;5.73;;
6209;SDS011;3138;52.550;13.148;2023-10-09T04:49:31;18.80;;;5.50;;
6209;SDS011;3138;52.550;13.148;2023-10-09T04:52:14;13.87;;;6.60;;
6209;SDS011;3138;52.550;13.148;2023-10-09T04:55:04;14.10;;;6.80;;
6209;SDS011;3138;52.550;13.148;2023-10-09T04:57:43;11.37;;;6.93;;
6209;SDS011;3138;52.550;13.148;2023-10-09T05:00:12;10.50;;;7.50;;
6209;SDS011;3138;52.550;13.148;2023-10-09T05:02:50;17.47;;;8.90;;
6209;SDS011;3138;52.550;13.148;2023-10-09T05:05:19;13.90;;;7.50;;
6209;SDS011;3138;52.550;13.148;2023-10-09T05:08:13;12.90;;;5.80;;
6209;SDS011;3138;52.550;13.148;2023-10-09T05:10:44;12.77;;;6.30;;
6209;SDS011;3138;52.550;13.148;2023-10-09T05:13:25;11.93;;;5.80;;
6209;SDS011;3138;52.550;13.148;2023-10-09T05:16:08;14.70;;;6.30;;
6209;SDS011;3138;52.550;13.148;2023-10-09T05:18:45;8.73;;;5.20;;
6209;SDS011;3138;52.550;13.148;2023-10-09T05:21:21;7.77;;;5.67;;
6209;SDS011;3138;52.550;13.148;2023-10-09T05:24:02;11.73;;;5.80;;
6209;SDS011;3138;52.550;13.148;2023-10-09T05:26:44;12.20;;;5.50;;
6209;SDS011;3138;52.550;13.148;2023-10-09T05:29:18;10.60;;;5.90;;
6209;SDS011;3138;52.550;13.148;2023-10-09T05:31:44;13.83;;;6.40;;
6209;SDS011;3138;52.550;13.148;2023-10-09T05:34:23;9.93;;;6.27;;
6209;SDS011;3138;52.550;13.148;2023-10-09T05:36:58;16.43;;;5.60;;
6209;SDS011;3138;52.550;13.148;2023-10-09T05:39:42;6.27;;;5.67;;
6209;SDS011;3138;52.550;13.148;2023-10-09T05:42:23;12.20;;;5.83;;
6209;SDS011;3138;52.550;13.148;2023-10-09T05:44:53;13.83;;;6.27;;
6209;SDS011;3138;52.550;13.148;2023-10-09T05:47:37;7.53;;;4.93;;
6209;SDS011;3138;52.550;13.148;2023-10-09T05:50:14;8.93;;;6.10;;
6209;SDS011;3138;52.550;13.148;2023-10-09T05:52:59;10.30;;;5.50;;
6209;SDS011;3138;52.550;13.148;2023-10-09T05:55:32;8.83;;;5.90;;
6209;SDS011;3138;52.550;13.148;2023-10-09T05:58:16;6.10;;;5.50;;
6209;SDS011;3138;52.550;13.148;2023-10-09T06:01:00;13.17;;;5.70;;
6209;SDS011;3138;52.550;13.148;2023-10-09T06:03:46;7.77;;;5.23;;
6209;SDS011;3138;52.550;13.148;2023-10-09T06:06:21;8.23;;;6.20;;
6209;SDS011;3138;52.550;13.148;2023-10-09T06:09:08;24.57;;;6.63;;
6209;SDS011;3138;52.550;13.148;2023-10-09T06:11:52;8.70;;;6.13;;
6209;SDS011;3138;52.550;13.148;2023-10-09T06:14:41;11.10;;;6.53;;
6209;SDS011;3138;52.550;13.148;2023-10-09T06:17:23;21.90;;;6.17;;
6209;SDS011;3138;52.550;13.148;2023-10-09T06:19:52;12.43;;;6.23;;
6209;SDS011;3138;52.550;13.148;2023-10-09T06:22:25;10.30;;;6.27;;
6209;SDS011;3138;52.550;13.148;2023-10-09T06:25:22;11.03;;;6.77;;
6209;SDS011;3138;52.550;13.148;2023-10-09T06:27:57;11.87;;;6.17;;
6209;SDS011;3138;52.550;13.148;2023-10-09T06:30:24;9.33;;;6.20;;
6209;SDS011;3138;52.550;13.148;2023-10-09T06:32:52;8.53;;;6.70;;
6209;SDS011;3138;52.550;13.148;2023-10-09T06:35:33;8.50;;;6.17;;
6209;SDS011;3138;52.550;13.148;2023-10-09T06:38:02;19.03;;;6.90;;
6209;SDS011;3138;52.550;13.148;2023-10-09T06:40:47;8.33;;;7.07;;
6209;SDS011;3138;52.550;13.148;2023-10-09T06:43:32;15.60;;;6.87;;
6209;SDS011;3138;52.550;13.148;2023-10-09T06:46:02;11.47;;;6.10;;
6209;SDS011;3138;52.550;13.148;2023-10-09T06:48:52;17.77;;;5.87;;
6209;SDS011;3138;52.550;13.148;2023-10-09T06:51:22;12.50;;;6.37;;
6209;SDS011;3138;52.550;13.148;2023-10-09T06:54:07;8.40;;;5.40;;
6209;SDS011;3138;52.550;13.148;2023-10-09T06:56:43;9.67;;;6.97;;
6209;SDS011;3138;52.550;13.148;2023-10-09T06:59:27;18.73;;;5.97;;
6209;SDS011;3138;52.550;13.148;2023-10-09T07:02:06;9.23;;;6.57;;
6209;SDS011;3138;52.550;13.148;2023-10-09T07:04:59;11.20;;;5.43;;
6209;SDS011;3138;52.550;13.148;2023-10-09T07:07:35;10.10;;;4.77;;
6209;SDS011;3138;52.550;13.148;2023-10-09T07:10:16;9.77;;;5.67;;
6209;SDS011;3138;52.550;13.148;2023-10-09T07:12:57;21.43;;;5.97;;
6209;SDS011;3138;52.550;13.148;2023-10-09T07:15:24;16.20;;;5.60;;
6209;SDS011;3138;52.550;13.148;2023-10-09T07:18:05;8.10;;;6.23;;
6209;SDS011;3138;52.550;13.148;2023-10-09T07:20:45;10.77;;;6.67;;
6209;SDS011;3138;52.550;13.148;2023-10-09T07:23:24;12.77;;;6.10;;
6209;SDS011;3138;52.550;13.148;2023-10-09T07:26:01;13.70;;;5.53;;
6209;SDS011;3138;52.550;13.148;2023-10-09T07:28:43;9.77;;;5.60;;
6209;SDS011;3138;52.550;13.148;2023-10-09T07:31:16;7.07;;;4.70;;
6209;SDS011;3138;52.550;13.148;2023-10-09T07:34:04;12.13;;;5.47;;
6209;SDS011;3138;52.550;13.148;2023-10-09T07:36:52;6.80;;;5.00;;
6209;SDS011;3138;52.550;13.148;2023-10-09T07:39:21;8.23;;;5.20;;
6209;SDS011;3138;52.550;13.148;2023-10-09T07:41:49;9.63;;;5.60;;
6209;SDS011;3138;52.550;13.148;2023-10-09T07:44:27;13.80;;;5.70;;
6209;SDS011;3138;52.550;13.148;2023-10-09T07:47:03;12.43;;;5.30;;
6209;SDS011;3138;52.550;13.148;2023-10-09T07:49:47;11.10;;;5.90;;
6209;SDS011;3138;52.550;13.148;2023-10-09T07:52:17;14.40;;;5.70;;
6209;SDS011;3138;52.550;13.148;2023-10-09T07:54:47;7.47;;;5.97;;
6209;SDS011;3138;52.550;13.148;2023-10-09T07:57:28;12.60;;;6.40;;
6209;SDS011;3138;52.550;13.148;2023-10-09T08:00:03;13.30;;;6.40;;
6209;SDS011;3138;52.550;13.148;2023-10-09T08:02:56;31.20;;;7.10;;
6209;SDS011;3138;52.550;13.148;2023-10-09T08:05:25;11.23;;;5.47;;
6209;SDS011;3138;52.550;13.148;2023-10-09T08:07:58;6.43;;;4.87;;
6209;SDS011;3138;52.550;13.148;2023-10-09T08:10:43;7.43;;;5.83;;
6209;SDS011;3138;52.550;13.148;2023-10-09T08:13:25;9.37;;;6.13;;
6209;SDS011;3138;52.550;13.148;2023-10-09T08:16:10;7.30;;;6.50;;
6209;SDS011;3138;52.550;13.148;2023-10-09T08:18:45;9.67;;;5.93;;
6209;SDS011;3138;52.550;13.148;2023-10-09T08:21:11;13.20;;;5.87;;
6209;SDS011;3138;52.550;13.148;2023-10-09T08:24:06;10.73;;;5.83;;
6209;SDS011;3138;52.550;13.148;2023-10-09T08:26:53;12.40;;;6.07;;
6209;SDS011;3138;52.550;13.148;2023-10-09T08:29:41;10.23;;;5.70;;
6209;SDS011;3138;52.550;13.148;2023-10-09T08:32:12;14.57;;;5.23;;
6209;SDS011;3138;52.550;13.148;2023-10-09T08:35:03;10.80;;;6.30;;
6209;SDS011;3138;52.550;13.148;2023-10-09T08:37:31;10.17;;;5.93;;
6209;SDS011;3138;52.550;13.148;2023-10-09T08:39:58;15.57;;;6.17;;
6209;SDS011;3138;52.550;13.148;2023-10-09T08:42:24;18.57;;;5.37;;
6209;SDS011;3138;52.550;13.148;2023-10-09T08:44:55;9.63;;;5.50;;
6209;SDS011;3138;52.550;13.148;2023-10-09T08:47:25;14.73;;;5.60;;
6209;SDS011;3138;52.550;13.148;2023-10-09T08:49:52;8.90;;;6.27;;
6209;SDS011;3138;52.550;13.148;2023-10-09T08:52:19;11.90;;;6.60;;
6209;SDS011;3138;52.550;13.148;2023-10-09T08:54:47;8.53;;;6.27;;
6209;SDS011;3138;52.550;13.148;2023-10-09T08:57:14;14.37;;;6.50;;
6209;SDS011;3138;52.550;13.148;2023-10-09T08:59:43;14.50;;;5.57;;
6209;SDS011;3138;52.550;13.148;2023-10-09T09:02:11;12.60;;;6.30;;
6209;SDS011;3138;52.550;13.148;2023-10-09T09:04:41;8.50;;;5.63;;
6209;SDS011;3138;52.550;13.148;2023-10-09T09:07:23;8.63;;;6.47;;
6209;SDS011;3138;52.550;13.148;2023-10-09T09:09:56;10.73;;;6.80;;
6209;SDS011;3138;52.550;13.148;2023-10-09T09:12:27;14.00;;;5.67;;
6209;SDS011;3138;52.550;13.148;2023-10-09T09:15:02;12.00;;;6.10;;
6209;SDS011;3138;52.550;13.148;2023-10-09T09:17:33;16.93;;;7.70;;
6209;SDS011;3138;52.550;13.148;2023-10-09T09:20:18;8.70;;;7.10;;
6209;SDS011;3138;52.550;13.148;2023-10-09T09:22:51;8.40;;;6.03;;
6209;SDS011;3138;52.550;13.148;2023-10-09T09:25:21;11.40;;;6.70;;
6209;SDS011;3138;52.550;13.148;2023-10-09T09:27:49;15.70;;;7.20;;
6209;SDS011;3138;52.550;13.148;2023-10-09T09:30:22;9.90;;;6.60;;
6209;SDS011;3138;52.550;13.148;2023-10-09T09:32:53;8.63;;;6.10;;
6209;SDS011;3138;52.550;13.148;2023-10-09T09:35:33;13.00;;;6.17;;
6209;SDS011;3138;52.550;13.148;2023-10-09T09:38:00;9.00;;;6.17;;
6209;SDS011;3138;52.550;13.148;2023-10-09T09:40:31;10.57;;;6.27;;
6209;SDS011;3138;52.550;13.148;2023-10-09T09:43:07;11.03;;;5.63;;
6209;SDS011;3138;52.550;13.148;2023-10-09T09:45:46;9.00;;;5.50;;
6209;SDS011;3138;52.550;13.148;2023-10-09T09:48:16;11.10;;;6.10;;
6209;SDS011;3138;52.550;13.148;2023-10-09T09:50:44;10.00;;;7.10;;
6209;SDS011;3138;52.550;13.148;2023-10-09T09:53:12;12.70;;;5.97;;
6209;SDS011;3138;52.550;13.148;2023-10-09T09:55:43;7.87;;;5.43;;
6209;SDS011;3138;52.550;13.148;2023-10-09T09:58:17;6.80;;;5.90;;
6209;SDS011;3138;52.550;13.148;2023-10-09T10:00:45;7.63;;;5.10;;
6209;SDS011;3138;52.550;13.148;2023-10-09T10:03:20;13.77;;;6.27;;
6209;SDS011;3138;52.550;13.148;2023-10-09T10:05:50;12.60;;;6.27;;
6209;SDS011;3138;52.550;13.148;2023-10-09T10:08:19;11.57;;;6.00;;
6209;SDS011;3138;52.550;13.148;2023-10-09T10:10:55;8.13;;;5.40;;
6209;SDS011;3138;52.550;13.148;2023-10-09T10:16:25;11.87;;;6.53;;
6209;SDS011;3138;52.550;13.148;2023-10-09T10:19:01;10.63;;;6.70;;
6209;SDS011;3138;52.550;13.148;2023-10-09T10:21:46;9.67;;;6.97;;
6209;SDS011;3138;52.550;13.148;2023-10-09T10:27:19;11.60;;;5.87;;
6209;SDS011;3138;52.550;13.148;2023-10-09T10:33:08;16.13;;;6.07;;
6209;SDS011;3138;52.550;13.148;2023-10-09T10:35:40;14.60;;;5.83;;
6209;SDS011;3138;52.550;13.148;2023-10-09T10:38:24;8.20;;;6.43;;
6209;SDS011;3138;52.550;13.148;2023-10-09T10:41:07;12.80;;;6.57;;
6209;SDS011;3138;52.550;13.148;2023-10-09T10:43:37;7.00;;;5.90;;
6209;SDS011;3138;52.550;13.148;2023-10-09T10:46:45;14.83;;;6.90;;
6209;SDS011;3138;52.550;13.148;2023-10-09T10:49:17;9.43;;;6.90;;
6209;SDS011;3138;52.550;13.148;2023-10-09T10:51:48;9.70;;;7.13;;
6209;SDS011;3138;52.550;13.148;2023-10-09T10:54:26;6.30;;;5.70;;
6209;SDS011;3138;52.550;13.148;2023-10-09T10:57:14;18.20;;;7.33;;
6209;SDS011;3138;52.550;13.148;2023-10-09T10:59:53;12.20;;;5.60;;
6209;SDS011;3138;52.550;13.148;2023-10-09T11:02:37;13.03;;;8.63;;
6209;SDS011;3138;52.550;13.148;2023-10-09T11:05:06;15.50;;;7.17;;
6209;SDS011;3138;52.550;13.148;2023-10-09T11:07:50;15.13;;;6.63;;
6209;SDS011;3138;52.550;13.148;2023-10-09T11:10:21;12.47;;;6.50;;
6209;SDS011;3138;52.550;13.148;2023-10-09T11:12:54;11.13;;;6.33;;
6209;SDS011;3138;52.550;13.148;2023-10-09T11:15:39;14.63;;;6.73;;
6209;SDS011;3138;52.550;13.148;2023-10-09T11:18:11;6.87;;;5.40;;
6209;SDS011;3138;52.550;13.148;2023-10-09T11:20:45;9.57;;;7.50;;
6209;SDS011;3138;52.550;13.148;2023-10-09T11:23:45;6.80;;;6.13;;
6209;SDS011;3138;52.550;13.148;2023-10-09T11:26:23;9.47;;;7.20;;
6209;SDS011;3138;52.550;13.148;2023-10-09T11:29:06;11.67;;;7.10;;
6209;SDS011;3138;52.550;13.148;2023-10-09T11:31:40;12.13;;;6.50;;
6209;SDS011;3138;52.550;13.148;2023-10-09T11:34:20;11.63;;;6.67;;
6209;SDS011;3138;52.550;13.148;2023-10-09T11:36:54;14.57;;;7.90;;
6209;SDS011;3138;52.550;13.148;2023-10-09T11:39:25;9.10;;;7.63;;
6209;SDS011;3138;52.550;13.148;2023-10-09T11:42:15;13.93;;;9.30;;
6209;SDS011;3138;52.550;13.148;2023-10-09T11:45:01;11.90;;;7.53;;
6209;SDS011;3138;52.550;13.148;2023-10-09T11:47:44;11.40;;;8.07;;
6209;SDS011;3138;52.550;13.148;2023-10-09T11:50:19;12.00;;;7.57;;
6209;SDS011;3138;52.550;13.148;2023-10-09T11:52:56;11.50;;;7.97;;
6209;SDS011;3138;52.550;13.148;2023-10-09T11:55:44;10.47;;;8.70;;
6209;SDS011;3138;52.550;13.148;2023-10-09T11:58:13;13.73;;;8.60;;
6209;SDS011;3138;52.550;13.148;2023-10-09T12:00:47;21.00;;;8.67;;
6209;SDS011;3138;52.550;13.148;2023-10-09T12:03:16;16.90;;;8.83;;
6209;SDS011;3138;52.550;13.148;2023-10-09T12:05:46;11.50;;;8.60;;
6209;SDS011;3138;52.550;13.148;2023-10-09T12:08:13;13.77;;;8.97;;
6209;SDS011;3138;52.550;13.148;2023-10-09T12:10:42;18.27;;;7.97;;
6209;SDS011;3138;52.550;13.148;2023-10-09T12:13:13;10.60;;;7.93;;
6209;SDS011;3138;52.550;13.148;2023-10-09T12:15:40;9.37;;;7.07;;
6209;SDS011;3138;52.550;13.148;2023-10-09T12:18:11;13.90;;;8.87;;
6209;SDS011;3138;52.550;13.148;2023-10-09T12:20:41;12.23;;;8.10;;
6209;SDS011;3138;52.550;13.148;2023-10-09T12:23:15;10.20;;;7.67;;
6209;SDS011;3138;52.550;13.148;2023-10-09T12:25:41;9.83;;;7.10;;
6209;SDS011;3138;52.550;13.148;2023-10-09T12:28:11;9.10;;;7.60;;
6209;SDS011;3138;52.550;13.148;2023-10-09T12:30:38;12.90;;;6.70;;
6209;SDS011;3138;52.550;13.148;2023-10-09T12:33:06;15.53;;;8.03;;
6209;SDS011;3138;52.550;13.148;2023-10-09T12:35:37;10.43;;;8.17;;
6209;SDS011;3138;52.550;13.148;2023-10-09T12:38:04;12.90;;;8.90;;
6209;SDS011;3138;52.550;13.148;2023-10-09T12:40:34;19.57;;;6.77;;
6209;SDS011;3138;52.550;13.148;2023-10-09T12:43:04;10.77;;;7.10;;
6209;SDS011;3138;52.550;13.148;2023-10-09T12:45:33;13.53;;;7.83;;
6209;SDS011;3138;52.550;13.148;2023-10-09T12:48:00;12.40;;;7.67;;
6209;SDS011;3138;52.550;13.148;2023-10-09T12:50:28;14.27;;;6.73;;
6209;SDS011;3138;52.550;13.148;2023-10-09T12:52:55;12.73;;;6.90;;
6209;SDS011;3138;52.550;13.148;2023-10-09T12:55:22;9.80;;;5.90;;
6209;SDS011;3138;52.550;13.148;2023-10-09T12:57:57;8.60;;;6.33;;
6209;SDS011;3138;52.550;13.148;2023-10-09T13:00:32;8.90;;;6.17;;
6209;SDS011;3138;52.550;13.148;2023-10-09T13:03:02;8.03;;;5.40;;
6209;SDS011;3138;52.550;13.148;2023-10-09T13:05:41;9.50;;;6.33;;
6209;SDS011;3138;52.550;13.148;2023-10-09T13:08:19;8.60;;;5.57;;
6209;SDS011;3138;52.550;13.148;2023-10-09T13:10:47;12.07;;;7.03;;
6209;SDS011;3138;52.550;13.148;2023-10-09T13:13:23;10.13;;;6.43;;
6209;SDS011;3138;52.550;13.148;2023-10-09T13:15:53;9.23;;;6.30;;
6209;SDS011;3138;52.550;13.148;2023-10-09T13:18:20;11.53;;;6.73;;
6209;SDS011;3138;52.550;13.148;2023-10-09T13:20:48;7.73;;;6.30;;
6209;SDS011;3138;52.550;13.148;2023-10-09T13:23:14;12.43;;;7.83;;
6209;SDS011;3138;52.550;13.148;2023-10-09T13:25:42;9.97;;;7.13;;
6209;SDS011;3138;52.550;13.148;2023-10-09T13:28:09;11.20;;;7.50;;
6209;SDS011;3138;52.550;13.148;2023-10-09T13:30:37;13.60;;;7.70;;
6209;SDS011;3138;52.550;13.148;2023-10-09T13:33:15;8.80;;;6.70;;
6209;SDS011;3138;52.550;13.148;2023-10-09T13:35:46;10.77;;;7.70;;
6209;SDS011;3138;52.550;13.148;2023-10-09T13:38:15;9.37;;;6.80;;
6209;SDS011;3138;52.550;13.148;2023-10-09T13:40:42;8.17;;;6.90;;
6209;SDS011;3138;52.550;13.148;2023-10-09T13:43:09;12.23;;;9.07;;
6209;SDS011;3138;52.550;13.148;2023-10-09T13:45:41;15.00;;;7.33;;
6209;SDS011;3138;52.550;13.148;2023-10-09T13:48:16;9.90;;;7.60;;
6209;SDS011;3138;52.550;13.148;2023-10-09T13:50:46;10.87;;;7.90;;
6209;SDS011;3138;52.550;13.148;2023-10-09T13:53:13;16.53;;;7.90;;
6209;SDS011;3138;52.550;13.148;2023-10-09T13:55:41;9.77;;;7.80;;
6209;SDS011;3138;52.550;13.148;2023-10-09T13:58:09;11.80;;;8.17;;
6209;SDS011;3138;52.550;13.148;2023-10-09T14:00:45;9.07;;;8.13;;
6209;SDS011;3138;52.550;13.148;2023-10-09T14:03:16;11.00;;;8.63;;
6209;SDS011;3138;52.550;13.148;2023-10-09T14:05:45;8.40;;;7.60;;
6209;SDS011;3138;52.550;13.148;2023-10-09T14:08:19;19.43;;;7.50;;
6209;SDS011;3138;52.550;13.148;2023-10-09T14:10:48;15.97;;;7.87;;
6209;SDS011;3138;52.550;13.148;2023-10-09T14:13:15;10.93;;;8.20;;
6209;SDS011;3138;52.550;13.148;2023-10-09T14:15:50;13.83;;;8.23;;
6209;SDS011;3138;52.550;13.148;2023-10-09T14:18:20;21.43;;;8.50;;
6209;SDS011;3138;52.550;13.148;2023-10-09T14:20:47;10.80;;;8.47;;
6209;SDS011;3138;52.550;13.148;2023-10-09T14:23:15;16.90;;;10.67;;
6209;SDS011;3138;52.550;13.148;2023-10-09T14:25:45;11.80;;;9.97;;
6209;SDS011;3138;52.550;13.148;2023-10-09T14:28:14;11.90;;;10.60;;
6209;SDS011;3138;52.550;13.148;2023-10-09T14:30:44;17.90;;;12.03;;
6209;SDS011;3138;52.550;13.148;2023-10-09T14:33:14;12.63;;;10.20;;
6209;SDS011;3138;52.550;13.148;2023-10-09T14:35:49;21.10;;;11.70;;
6209;SDS011;3138;52.550;13.148;2023-10-09T14:38:17;18.60;;;11.53;;
6209;SDS011;3138;52.550;13.148;2023-10-09T14:40:51;18.50;;;11.67;;
6209;SDS011;3138;52.550;13.148;2023-10-09T14:43:22;26.57;;;13.10;;
6209;SDS011;3138;52.550;13.148;2023-10-09T14:45:53;17.87;;;11.73;;
6209;SDS011;3138;52.550;13.148;2023-10-09T14:48:20;18.60;;;11.97;;
6209;SDS011;3138;52.550;13.148;2023-10-09T14:50:52;17.97;;;12.73;;
6209;SDS011;3138;52.550;13.148;2023-10-09T14:53:19;12.57;;;11.27;;
6209;SDS011;3138;52.550;13.148;2023-10-09T14:55:53;21.50;;;12.37;;
6209;SDS011;3138;52.550;13.148;2023-10-09T14:58:20;14.67;;;10.77;;
6209;SDS011;3138;52.550;13.148;2023-10-09T15:00:49;17.10;;;11.07;;
6209;SDS011;3138;52.550;13.148;2023-10-09T15:03:16;16.30;;;12.10;;
6209;SDS011;3138;52.550;13.148;2023-10-09T15:05:45;14.27;;;11.37;;
6209;SDS011;3138;52.550;13.148;2023-10-09T15:08:13;11.80;;;10.47;;
6209;SDS011;3138;52.550;13.148;2023-10-09T15:10:46;13.30;;;10.63;;
6209;SDS011;3138;52.550;13.148;2023-10-09T15:13:14;18.07;;;11.33;;
6209;SDS011;3138;52.550;13.148;2023-10-09T15:15:42;14.07;;;10.97;;
6209;SDS011;3138;52.550;13.148;2023-10-09T15:18:10;24.23;;;10.70;;
6209;SDS011;3138;52.550;13.148;2023-10-09T15:20:40;25.43;;;11.80;;
6209;SDS011;3138;52.550;13.148;2023-10-09T15:23:07;18.30;;;11.70;;
6209;SDS011;3138;52.550;13.148;2023-10-09T15:25:36;17.10;;;11.27;;
6209;SDS011;3138;52.550;13.148;2023-10-09T15:28:04;14.93;;;10.50;;
6209;SDS011;3138;52.550;13.148;2023-10-09T15:30:33;18.60;;;10.60;;
6209;SDS011;3138;52.550;13.148;2023-10-09T15:33:00;13.80;;;10.27;;
6209;SDS011;3138;52.550;13.148;2023-10-09T15:35:27;18.23;;;10.90;;
6209;SDS011;3138;52.550;13.148;2023-10-09T15:37:54;15.97;;;10.90;;
6209;SDS011;3138;52.550;13.148;2023-10-09T15:40:21;11.80;;;10.60;;
6209;SDS011;3138;52.550;13.148;2023-10-09T15:42:51;13.23;;;11.80;;